sensor_id;sensor_type;location;lat;lon;timestamp;temperature;humidity
46590;DHT22;32313;48.722;9.362;2023-04-01T00:00:30;7.80;99.90
46590;DHT22;32313;48.722;9.362;2023-04-01T00:02:56;7.80;99.90
46590;DHT22;32313;48.722;9.362;2023-04-01T00:05:22;7.70;99.90
46590;DHT22;32313;48.722;9.362;2023-04-01T00:07:49;7.70;99.90
46590;DHT22;32313;48.722;9.362;2023-04-01T00:10:15;7.70;99.90
46590;DHT22;32313;48.722;9.362;2023-04-01T00:12:41;7.80;99.90
46590;DHT22;32313;48.722;9.362;2023-04-01T00:15:09;7.80;99.90
46590;DHT22;32313;48.722;9.362;2023-04-01T00:17:35;7.80;99.90
46590;DHT22;32313;48.722;9.362;2023-04-01T00:20:02;7.80;99.90
46590;DHT22;32313;48.722;9.362;2023-04-01T00:22:28;7.70;99.90
46590;DHT22;32313;48.722;9.362;2023-04-01T00:24:54;7.80;99.90
46590;DHT22;32313;48.722;9.362;2023-04-01T00:27:20;7.80;99.90
46590;DHT22;32313;48.722;9.362;2023-04-01T00:29:46;7.80;99.90
46590;DHT22;32313;48.722;9.362;2023-04-01T00:32:14;7.80;99.90
46590;DHT22;32313;48.722;9.362;2023-04-01T00:34:40;7.80;99.90
46590;DHT22;32313;48.722;9.362;2023-04-01T00:37:07;7.80;99.90
46590;DHT22;32313;48.722;9.362;2023-04-01T00:39:34;7.80;99.90
46590;DHT22;32313;48.722;9.362;2023-04-01T00:42:00;7.80;99.90
46590;DHT22;32313;48.722;9.362;2023-04-01T00:44:29;7.60;99.90
46590;DHT22;32313;48.722;9.362;2023-04-01T00:46:56;7.60;99.90
46590;DHT22;32313;48.722;9.362;2023-04-01T00:49:28;7.50;99.90
46590;DHT22;32313;48.722;9.362;2023-04-01T00:51:57;7.50;99.90
46590;DHT22;32313;48.722;9.362;2023-04-01T00:54:25;7.60;99.90
46590;DHT22;32313;48.722;9.362;2023-04-01T00:56:57;7.70;99.90
46590;DHT22;32313;48.722;9.362;2023-04-01T00:59:27;7.80;99.90
46590;DHT22;32313;48.722;9.362;2023-04-01T01:01:54;7.90;99.90
46590;DHT22;32313;48.722;9.362;2023-04-01T01:09:31;8.00;99.90
46590;DHT22;32313;48.722;9.362;2023-04-01T01:15:30;8.10;99.90
46590;DHT22;32313;48.722;9.362;2023-04-01T01:21:24;8.10;99.90
46590;DHT22;32313;48.722;9.362;2023-04-01T01:32:31;7.80;99.90
46590;DHT22;32313;48.722;9.362;2023-04-01T01:37:55;7.80;99.90
46590;DHT22;32313;48.722;9.362;2023-04-01T01:40:22;7.90;99.90
46590;DHT22;32313;48.722;9.362;2023-04-01T01:42:53;7.80;99.90
46590;DHT22;32313;48.722;9.362;2023-04-01T01:45:21;7.80;99.90
46590;DHT22;32313;48.722;9.362;2023-04-01T01:47:50;7.80;99.90
46590;DHT22;32313;48.722;9.362;2023-04-01T01:50:17;7.70;99.90
46590;DHT22;32313;48.722;9.362;2023-04-01T01:52:43;7.70;99.90
46590;DHT22;32313;48.722;9.362;2023-04-01T01:55:34;7.70;99.90
46590;DHT22;32313;48.722;9.362;2023-04-01T01:58:31;7.70;99.90
46590;DHT22;32313;48.722;9.362;2023-04-01T02:01:01;7.80;99.90
46590;DHT22;32313;48.722;9.362;2023-04-01T02:03:32;7.70;99.90
46590;DHT22;32313;48.722;9.362;2023-04-01T02:06:00;7.60;99.90
46590;DHT22;32313;48.722;9.362;2023-04-01T02:08:35;7.40;99.90
46590;DHT22;32313;48.722;9.362;2023-04-01T02:11:28;7.40;99.90
46590;DHT22;32313;48.722;9.362;2023-04-01T02:14:22;7.40;99.90
46590;DHT22;32313;48.722;9.362;2023-04-01T02:17:04;7.40;99.90
46590;DHT22;32313;48.722;9.362;2023-04-01T02:19:43;7.40;99.90
46590;DHT22;32313;48.722;9.362;2023-04-01T02:22:15;7.40;99.90
46590;DHT22;32313;48.722;9.362;2023-04-01T02:24:42;7.50;99.90
46590;DHT22;32313;48.722;9.362;2023-04-01T02:27:09;7.60;99.90
46590;DHT22;32313;48.722;9.362;2023-04-01T02:29:35;7.60;99.90
46590;DHT22;32313;48.722;9.362;2023-04-01T02:32:07;7.60;99.90
46590;DHT22;32313;48.722;9.362;2023-04-01T02:34:34;7.60;99.90
46590;DHT22;32313;48.722;9.362;2023-04-01T02:37:00;7.60;99.90
46590;DHT22;32313;48.722;9.362;2023-04-01T02:39:26;7.60;99.90
46590;DHT22;32313;48.722;9.362;2023-04-01T02:41:52;7.60;99.90
46590;DHT22;32313;48.722;9.362;2023-04-01T02:44:17;7.70;99.90
46590;DHT22;32313;48.722;9.362;2023-04-01T02:46:43;7.70;99.90
46590;DHT22;32313;48.722;9.362;2023-04-01T02:49:09;7.60;99.90
46590;DHT22;32313;48.722;9.362;2023-04-01T02:51:35;7.50;99.90
46590;DHT22;32313;48.722;9.362;2023-04-01T02:54:01;7.50;99.90
46590;DHT22;32313;48.722;9.362;2023-04-01T02:56:27;7.50;99.90
46590;DHT22;32313;48.722;9.362;2023-04-01T02:58:54;7.50;99.90
46590;DHT22;32313;48.722;9.362;2023-04-01T03:08:29;7.30;99.90
46590;DHT22;32313;48.722;9.362;2023-04-01T03:10:56;7.30;99.90
46590;DHT22;32313;48.722;9.362;2023-04-01T03:13:21;7.20;99.90
46590;DHT22;32313;48.722;9.362;2023-04-01T03:15:47;7.10;99.90
46590;DHT22;32313;48.722;9.362;2023-04-01T03:18:14;7.10;99.90
46590;DHT22;32313;48.722;9.362;2023-04-01T03:20:39;7.00;99.90
46590;DHT22;32313;48.722;9.362;2023-04-01T03:23:05;7.00;99.90
46590;DHT22;32313;48.722;9.362;2023-04-01T03:25:31;6.90;99.90
46590;DHT22;32313;48.722;9.362;2023-04-01T03:27:56;6.90;99.90
46590;DHT22;32313;48.722;9.362;2023-04-01T03:30:25;6.80;99.90
46590;DHT22;32313;48.722;9.362;2023-04-01T03:32:51;6.80;99.90
46590;DHT22;32313;48.722;9.362;2023-04-01T03:35:17;6.80;99.90
46590;DHT22;32313;48.722;9.362;2023-04-01T03:37:44;6.70;99.90
46590;DHT22;32313;48.722;9.362;2023-04-01T03:40:11;6.70;99.90
46590;DHT22;32313;48.722;9.362;2023-04-01T03:42:36;6.70;99.90
46590;DHT22;32313;48.722;9.362;2023-04-01T03:45:03;6.80;99.90
46590;DHT22;32313;48.722;9.362;2023-04-01T03:47:30;6.90;99.90
46590;DHT22;32313;48.722;9.362;2023-04-01T03:49:55;6.90;99.90
46590;DHT22;32313;48.722;9.362;2023-04-01T03:52:22;6.90;99.90
46590;DHT22;32313;48.722;9.362;2023-04-01T03:54:48;6.90;99.90
46590;DHT22;32313;48.722;9.362;2023-04-01T03:57:13;6.90;99.90
46590;DHT22;32313;48.722;9.362;2023-04-01T03:59:40;6.90;99.90
46590;DHT22;32313;48.722;9.362;2023-04-01T04:02:05;6.90;99.90
46590;DHT22;32313;48.722;9.362;2023-04-01T04:04:31;7.00;99.90
46590;DHT22;32313;48.722;9.362;2023-04-01T04:06:58;7.00;99.90
46590;DHT22;32313;48.722;9.362;2023-04-01T04:09:25;7.00;99.90
46590;DHT22;32313;48.722;9.362;2023-04-01T04:11:50;6.90;99.90
46590;DHT22;32313;48.722;9.362;2023-04-01T04:14:16;6.80;99.90
46590;DHT22;32313;48.722;9.362;2023-04-01T04:16:43;6.80;99.90
46590;DHT22;32313;48.722;9.362;2023-04-01T04:19:09;6.70;99.90
46590;DHT22;32313;48.722;9.362;2023-04-01T04:21:35;6.70;99.90
46590;DHT22;32313;48.722;9.362;2023-04-01T04:24:01;6.60;99.90
46590;DHT22;32313;48.722;9.362;2023-04-01T04:26:47;6.50;99.90
46590;DHT22;32313;48.722;9.362;2023-04-01T04:29:13;6.50;99.90
46590;DHT22;32313;48.722;9.362;2023-04-01T04:31:38;6.60;99.90
46590;DHT22;32313;48.722;9.362;2023-04-01T04:34:06;6.50;99.90
46590;DHT22;32313;48.722;9.362;2023-04-01T04:36:34;6.50;99.90
46590;DHT22;32313;48.722;9.362;2023-04-01T04:39:00;6.50;99.90
46590;DHT22;32313;48.722;9.362;2023-04-01T04:41:28;6.50;99.90
46590;DHT22;32313;48.722;9.362;2023-04-01T04:43:55;6.40;99.90
46590;DHT22;32313;48.722;9.362;2023-04-01T04:46:24;6.30;99.90
46590;DHT22;32313;48.722;9.362;2023-04-01T04:48:55;6.30;99.90
46590;DHT22;32313;48.722;9.362;2023-04-01T04:51:21;6.20;99.90
46590;DHT22;32313;48.722;9.362;2023-04-01T04:53:48;6.20;99.90
46590;DHT22;32313;48.722;9.362;2023-04-01T04:56:20;6.20;99.90
46590;DHT22;32313;48.722;9.362;2023-04-01T04:58:59;6.30;99.90
46590;DHT22;32313;48.722;9.362;2023-04-01T05:01:34;6.30;99.90
46590;DHT22;32313;48.722;9.362;2023-04-01T05:04:00;6.30;99.90
46590;DHT22;32313;48.722;9.362;2023-04-01T05:06:26;6.40;99.90
46590;DHT22;32313;48.722;9.362;2023-04-01T05:08:55;6.40;99.90
46590;DHT22;32313;48.722;9.362;2023-04-01T05:11:22;6.40;99.90
46590;DHT22;32313;48.722;9.362;2023-04-01T05:13:49;6.40;99.90
46590;DHT22;32313;48.722;9.362;2023-04-01T05:16:18;6.50;99.90
46590;DHT22;32313;48.722;9.362;2023-04-01T05:18:44;6.70;99.90
46590;DHT22;32313;48.722;9.362;2023-04-01T05:21:11;6.80;99.90
46590;DHT22;32313;48.722;9.362;2023-04-01T05:23:38;6.80;99.90
46590;DHT22;32313;48.722;9.362;2023-04-01T05:26:09;6.80;99.90
46590;DHT22;32313;48.722;9.362;2023-04-01T05:28:35;6.90;99.90
46590;DHT22;32313;48.722;9.362;2023-04-01T05:31:02;7.00;99.90
46590;DHT22;32313;48.722;9.362;2023-04-01T05:33:37;7.00;99.90
46590;DHT22;32313;48.722;9.362;2023-04-01T05:36:09;7.00;99.90
46590;DHT22;32313;48.722;9.362;2023-04-01T05:38:35;7.00;99.90
46590;DHT22;32313;48.722;9.362;2023-04-01T05:41:02;7.00;99.90
46590;DHT22;32313;48.722;9.362;2023-04-01T05:43:29;7.10;99.90
46590;DHT22;32313;48.722;9.362;2023-04-01T05:45:59;7.10;99.90
46590;DHT22;32313;48.722;9.362;2023-04-01T05:48:36;7.10;99.90
46590;DHT22;32313;48.722;9.362;2023-04-01T05:51:03;7.10;99.90
46590;DHT22;32313;48.722;9.362;2023-04-01T05:53:29;7.10;99.90
46590;DHT22;32313;48.722;9.362;2023-04-01T05:55:54;7.20;99.90
46590;DHT22;32313;48.722;9.362;2023-04-01T05:58:20;7.20;99.90
46590;DHT22;32313;48.722;9.362;2023-04-01T06:00:47;7.30;99.90
46590;DHT22;32313;48.722;9.362;2023-04-01T06:03:15;7.40;99.90
46590;DHT22;32313;48.722;9.362;2023-04-01T06:05:43;7.50;99.90
46590;DHT22;32313;48.722;9.362;2023-04-01T06:08:12;7.50;99.90
46590;DHT22;32313;48.722;9.362;2023-04-01T06:19:08;7.80;99.90
46590;DHT22;32313;48.722;9.362;2023-04-01T06:21:41;7.90;99.90
46590;DHT22;32313;48.722;9.362;2023-04-01T06:30:02;8.20;99.90
46590;DHT22;32313;48.722;9.362;2023-04-01T06:32:54;8.40;99.90
46590;DHT22;32313;48.722;9.362;2023-04-01T06:41:35;9.20;99.90
46590;DHT22;32313;48.722;9.362;2023-04-01T06:47:40;9.20;99.90
46590;DHT22;32313;48.722;9.362;2023-04-01T06:56:15;9.20;99.90
46590;DHT22;32313;48.722;9.362;2023-04-01T07:03:58;9.20;99.90
46590;DHT22;32313;48.722;9.362;2023-04-01T07:06:38;9.20;99.90
46590;DHT22;32313;48.722;9.362;2023-04-01T07:09:10;9.20;99.90
46590;DHT22;32313;48.722;9.362;2023-04-01T07:12:02;9.20;99.90
46590;DHT22;32313;48.722;9.362;2023-04-01T07:14:50;9.20;99.90
46590;DHT22;32313;48.722;9.362;2023-04-01T07:17:33;9.30;99.90
46590;DHT22;32313;48.722;9.362;2023-04-01T07:20:22;9.30;99.90
46590;DHT22;32313;48.722;9.362;2023-04-01T07:22:50;9.40;99.90
46590;DHT22;32313;48.722;9.362;2023-04-01T07:25:35;9.50;99.90
46590;DHT22;32313;48.722;9.362;2023-04-01T07:28:30;9.50;99.90
46590;DHT22;32313;48.722;9.362;2023-04-01T07:36:45;9.50;99.90
46590;DHT22;32313;48.722;9.362;2023-04-01T07:56:14;9.70;99.90
46590;DHT22;32313;48.722;9.362;2023-04-01T08:02:00;9.90;99.90
46590;DHT22;32313;48.722;9.362;2023-04-01T08:04:49;9.90;99.90
46590;DHT22;32313;48.722;9.362;2023-04-01T08:07:22;10.00;99.90
46590;DHT22;32313;48.722;9.362;2023-04-01T08:10:28;10.00;99.90
46590;DHT22;32313;48.722;9.362;2023-04-01T08:22:40;10.30;99.90
46590;DHT22;32313;48.722;9.362;2023-04-01T08:25:21;10.40;99.90
46590;DHT22;32313;48.722;9.362;2023-04-01T08:28:03;10.50;99.90
46590;DHT22;32313;48.722;9.362;2023-04-01T08:30:35;10.40;99.90
46590;DHT22;32313;48.722;9.362;2023-04-01T08:33:06;10.40;99.90
46590;DHT22;32313;48.722;9.362;2023-04-01T08:35:43;10.30;99.90
46590;DHT22;32313;48.722;9.362;2023-04-01T08:49:16;10.20;99.90
46590;DHT22;32313;48.722;9.362;2023-04-01T08:51:53;10.30;99.90
46590;DHT22;32313;48.722;9.362;2023-04-01T09:18:28;8.80;99.90
46590;DHT22;32313;48.722;9.362;2023-04-01T09:24:21;8.80;99.90
46590;DHT22;32313;48.722;9.362;2023-04-01T09:40:31;9.30;99.90
46590;DHT22;32313;48.722;9.362;2023-04-01T09:46:23;9.50;99.90
46590;DHT22;32313;48.722;9.362;2023-04-01T09:49:30;9.70;99.90
46590;DHT22;32313;48.722;9.362;2023-04-01T09:55:10;9.70;99.90
46590;DHT22;32313;48.722;9.362;2023-04-01T10:10:00;9.40;99.90
46590;DHT22;32313;48.722;9.362;2023-04-01T10:32:51;9.30;99.90
46590;DHT22;32313;48.722;9.362;2023-04-01T10:41:38;9.50;99.90
46590;DHT22;32313;48.722;9.362;2023-04-01T10:44:50;9.60;99.90
46590;DHT22;32313;48.722;9.362;2023-04-01T10:56:32;10.20;99.90
46590;DHT22;32313;48.722;9.362;2023-04-01T11:02:46;10.40;99.90
46590;DHT22;32313;48.722;9.362;2023-04-01T11:05:54;10.50;99.90
46590;DHT22;32313;48.722;9.362;2023-04-01T11:17:00;10.80;99.90
46590;DHT22;32313;48.722;9.362;2023-04-01T11:31:44;10.80;99.90
46590;DHT22;32313;48.722;9.362;2023-04-01T11:39:45;11.40;99.90
46590;DHT22;32313;48.722;9.362;2023-04-01T11:43:24;11.60;99.90
46590;DHT22;32313;48.722;9.362;2023-04-01T11:57:51;11.40;99.90
46590;DHT22;32313;48.722;9.362;2023-04-01T12:01:21;11.30;99.90
46590;DHT22;32313;48.722;9.362;2023-04-01T12:14:20;11.30;99.90
46590;DHT22;32313;48.722;9.362;2023-04-01T12:17:09;11.20;99.90
46590;DHT22;32313;48.722;9.362;2023-04-01T12:19:51;11.10;99.90
46590;DHT22;32313;48.722;9.362;2023-04-01T12:30:45;10.80;99.90
46590;DHT22;32313;48.722;9.362;2023-04-01T12:36:05;10.80;99.90
46590;DHT22;32313;48.722;9.362;2023-04-01T12:44:19;10.90;99.90
46590;DHT22;32313;48.722;9.362;2023-04-01T12:46:59;10.80;99.90
46590;DHT22;32313;48.722;9.362;2023-04-01T13:00:27;11.40;99.90
46590;DHT22;32313;48.722;9.362;2023-04-01T13:06:04;11.70;99.90
46590;DHT22;32313;48.722;9.362;2023-04-01T13:35:56;11.50;99.90
46590;DHT22;32313;48.722;9.362;2023-04-01T13:43:49;11.20;99.90
46590;DHT22;32313;48.722;9.362;2023-04-01T14:28:12;11.50;99.90
46590;DHT22;32313;48.722;9.362;2023-04-01T14:49:44;11.20;99.90
46590;DHT22;32313;48.722;9.362;2023-04-01T14:54:48;11.00;99.90
46590;DHT22;32313;48.722;9.362;2023-04-01T14:57:22;11.00;99.90
46590;DHT22;32313;48.722;9.362;2023-04-01T15:02:40;11.00;99.90
46590;DHT22;32313;48.722;9.362;2023-04-01T15:08:13;11.00;99.90
46590;DHT22;32313;48.722;9.362;2023-04-01T15:19:31;10.90;99.90
46590;DHT22;32313;48.722;9.362;2023-04-01T15:22:18;10.80;99.90
46590;DHT22;32313;48.722;9.362;2023-04-01T15:27:33;10.70;99.90
46590;DHT22;32313;48.722;9.362;2023-04-01T15:30:26;10.70;99.90
46590;DHT22;32313;48.722;9.362;2023-04-01T15:33:10;10.70;99.90
46590;DHT22;32313;48.722;9.362;2023-04-01T15:35:45;10.60;99.90
46590;DHT22;32313;48.722;9.362;2023-04-01T15:41:22;10.60;99.90
46590;DHT22;32313;48.722;9.362;2023-04-01T15:43:50;10.60;99.90
46590;DHT22;32313;48.722;9.362;2023-04-01T15:51:42;10.60;99.90
46590;DHT22;32313;48.722;9.362;2023-04-01T15:57:20;10.60;99.90
46590;DHT22;32313;48.722;9.362;2023-04-01T16:05:25;10.50;99.90
46590;DHT22;32313;48.722;9.362;2023-04-01T16:22:02;10.30;99.90
46590;DHT22;32313;48.722;9.362;2023-04-01T16:32:57;10.20;99.90
46590;DHT22;32313;48.722;9.362;2023-04-01T16:35:47;10.10;99.90
46590;DHT22;32313;48.722;9.362;2023-04-01T16:44:17;10.00;99.90
46590;DHT22;32313;48.722;9.362;2023-04-01T16:46:48;10.00;99.90
46590;DHT22;32313;48.722;9.362;2023-04-01T16:49:37;9.90;99.90
46590;DHT22;32313;48.722;9.362;2023-04-01T17:02:45;9.80;99.90
46590;DHT22;32313;48.722;9.362;2023-04-01T17:05:12;9.80;99.90
46590;DHT22;32313;48.722;9.362;2023-04-01T17:13:25;9.80;99.90
46590;DHT22;32313;48.722;9.362;2023-04-01T17:16:24;9.80;99.90
46590;DHT22;32313;48.722;9.362;2023-04-01T17:21:57;9.80;99.90
46590;DHT22;32313;48.722;9.362;2023-04-01T17:31:07;9.70;99.90
46590;DHT22;32313;48.722;9.362;2023-04-01T17:33:55;9.70;99.90
46590;DHT22;32313;48.722;9.362;2023-04-01T17:42:40;9.80;99.90
46590;DHT22;32313;48.722;9.362;2023-04-01T17:45:24;9.70;99.90
46590;DHT22;32313;48.722;9.362;2023-04-01T17:48:08;9.70;99.90
46590;DHT22;32313;48.722;9.362;2023-04-01T17:59:17;9.80;99.90
46590;DHT22;32313;48.722;9.362;2023-04-01T18:19:09;9.70;99.90
46590;DHT22;32313;48.722;9.362;2023-04-01T18:21:51;9.70;99.90
46590;DHT22;32313;48.722;9.362;2023-04-01T18:27:04;9.60;99.90
46590;DHT22;32313;48.722;9.362;2023-04-01T18:29:52;9.70;99.90
46590;DHT22;32313;48.722;9.362;2023-04-01T18:32:52;9.70;99.90
46590;DHT22;32313;48.722;9.362;2023-04-01T18:36:03;9.70;99.90
46590;DHT22;32313;48.722;9.362;2023-04-01T18:38:39;9.60;99.90
46590;DHT22;32313;48.722;9.362;2023-04-01T18:41:22;9.50;99.90
46590;DHT22;32313;48.722;9.362;2023-04-01T18:44:28;9.40;99.90
46590;DHT22;32313;48.722;9.362;2023-04-01T18:50:02;9.20;99.90
46590;DHT22;32313;48.722;9.362;2023-04-01T18:52:35;9.10;99.90
46590;DHT22;32313;48.722;9.362;2023-04-01T19:00:39;9.00;99.90
46590;DHT22;32313;48.722;9.362;2023-04-01T19:03:40;8.90;99.90
46590;DHT22;32313;48.722;9.362;2023-04-01T19:06:29;8.80;99.90
46590;DHT22;32313;48.722;9.362;2023-04-01T19:09:11;8.80;99.90
46590;DHT22;32313;48.722;9.362;2023-04-01T19:19:40;8.40;99.90
46590;DHT22;32313;48.722;9.362;2023-04-01T19:22:30;8.30;99.90
46590;DHT22;32313;48.722;9.362;2023-04-01T19:25:20;8.10;99.90
46590;DHT22;32313;48.722;9.362;2023-04-01T19:27:51;8.00;99.90
46590;DHT22;32313;48.722;9.362;2023-04-01T19:32:58;7.80;99.90
46590;DHT22;32313;48.722;9.362;2023-04-01T19:35:32;7.60;99.90
46590;DHT22;32313;48.722;9.362;2023-04-01T19:38:13;7.60;99.90
46590;DHT22;32313;48.722;9.362;2023-04-01T19:46:13;7.40;99.90
46590;DHT22;32313;48.722;9.362;2023-04-01T19:51:34;7.50;99.90
46590;DHT22;32313;48.722;9.362;2023-04-01T20:04:55;7.40;99.90
46590;DHT22;32313;48.722;9.362;2023-04-01T20:07:27;7.40;99.90
46590;DHT22;32313;48.722;9.362;2023-04-01T20:18:03;7.20;99.90
46590;DHT22;32313;48.722;9.362;2023-04-01T20:20:31;7.20;99.90
46590;DHT22;32313;48.722;9.362;2023-04-01T20:25:42;7.30;99.90
46590;DHT22;32313;48.722;9.362;2023-04-01T20:28:21;7.30;99.90
46590;DHT22;32313;48.722;9.362;2023-04-01T20:31:19;7.30;99.90
46590;DHT22;32313;48.722;9.362;2023-04-01T20:39:45;7.30;99.90
46590;DHT22;32313;48.722;9.362;2023-04-01T20:50:36;7.40;99.90
46590;DHT22;32313;48.722;9.362;2023-04-01T20:53:40;7.40;99.90
46590;DHT22;32313;48.722;9.362;2023-04-01T21:01:30;7.30;99.90
46590;DHT22;32313;48.722;9.362;2023-04-01T21:20:40;7.50;99.90
46590;DHT22;32313;48.722;9.362;2023-04-01T21:31:59;7.70;99.90
46590;DHT22;32313;48.722;9.362;2023-04-01T21:36:59;7.60;99.90
46590;DHT22;32313;48.722;9.362;2023-04-01T21:40:02;7.50;99.90
46590;DHT22;32313;48.722;9.362;2023-04-01T21:53:26;7.20;99.90
46590;DHT22;32313;48.722;9.362;2023-04-01T22:07:23;7.50;99.90
46590;DHT22;32313;48.722;9.362;2023-04-01T22:13:10;7.70;99.90
46590;DHT22;32313;48.722;9.362;2023-04-01T22:15:55;7.70;99.90
46590;DHT22;32313;48.722;9.362;2023-04-01T22:21:23;7.80;99.90
46590;DHT22;32313;48.722;9.362;2023-04-01T22:27:18;7.80;99.90
46590;DHT22;32313;48.722;9.362;2023-04-01T22:30:08;7.80;99.90
46590;DHT22;32313;48.722;9.362;2023-04-01T22:32:42;7.80;99.90
46590;DHT22;32313;48.722;9.362;2023-04-01T22:35:27;7.80;99.90
46590;DHT22;32313;48.722;9.362;2023-04-01T22:38:06;7.80;99.90
46590;DHT22;32313;48.722;9.362;2023-04-01T22:41:01;7.80;99.90
46590;DHT22;32313;48.722;9.362;2023-04-01T22:43:42;7.80;99.90
46590;DHT22;32313;48.722;9.362;2023-04-01T22:46:48;7.80;99.90
46590;DHT22;32313;48.722;9.362;2023-04-01T22:49:29;7.70;99.90
46590;DHT22;32313;48.722;9.362;2023-04-01T22:52:05;7.70;99.90
46590;DHT22;32313;48.722;9.362;2023-04-01T22:54:53;7.70;99.90
46590;DHT22;32313;48.722;9.362;2023-04-01T22:59:54;7.80;99.90
46590;DHT22;32313;48.722;9.362;2023-04-01T23:02:29;7.80;99.90
46590;DHT22;32313;48.722;9.362;2023-04-01T23:04:58;7.80;99.90
46590;DHT22;32313;48.722;9.362;2023-04-01T23:10:41;7.80;99.90
46590;DHT22;32313;48.722;9.362;2023-04-01T23:13:18;7.80;99.90
46590;DHT22;32313;48.722;9.362;2023-04-01T23:15:46;7.80;99.90
46590;DHT22;32313;48.722;9.362;2023-04-01T23:20:54;7.80;99.90
46590;DHT22;32313;48.722;9.362;2023-04-01T23:26:36;7.80;99.90
46590;DHT22;32313;48.722;9.362;2023-04-01T23:29:06;7.80;99.90
46590;DHT22;32313;48.722;9.362;2023-04-01T23:31:43;7.80;99.90
46590;DHT22;32313;48.722;9.362;2023-04-01T23:36:46;7.70;99.90
46590;DHT22;32313;48.722;9.362;2023-04-01T23:42:00;7.60;99.90
46590;DHT22;32313;48.722;9.362;2023-04-01T23:44:28;7.60;99.90
46590;DHT22;32313;48.722;9.362;2023-04-01T23:46:54;7.60;99.90
46590;DHT22;32313;48.722;9.362;2023-04-01T23:49:25;7.60;99.90
46590;DHT22;32313;48.722;9.362;2023-04-01T23:52:14;7.50;99.90
46590;DHT22;32313;48.722;9.362;2023-04-01T23:57:32;7.50;99.90
